Ezeiza/Ministro Pistarini International Airport

Airport
ICAO code: 
SAEZ
IATA Code: 
EZE
Summary
ICAO Region: 
CARSAM
Territory: 
Location: 
Ezeiza, Buenos Aires
Serving: 
Buenos Aires
Elevation: 
67 ft
Coordinates: 
Aerial View: 
34° 49' 19.542" S, 58° 31' 46.116" W
Metar
Observation
SAEZ 071700Z 05012KT CAVOK 28/13 Q1019 NOSIG RMK PP000
Station
Ezeiza Aerodrome
Date/Time
2021-12-07 17:00:00
Wind direction
50°
Wind speed
12 kts
Lowest cloud amount
clouds and visibility OK
Temperature
28°C
Dew point
13°C
Humidity
39%
QNH
1019 hPa
Weather condition
n/a

International airport serving the city of Buenos Aires.

Climatology

Humid “subtropical” climate (Köppen climate classification Cfa) - characterized by hot, humid summers and cool winters. Significant amounts of precipitation occur in all seasons in most areas. Winter rainfall (and sometimes snowfall) is associated with large storms that the westerlies steer from west to east. Most summer rainfall occurs during thunderstorms.

Runways

Designator Length Width Surface Rops
17/35 3105 45 ASP Yes/Yes
11/29 3300 60 ASP Yes/Yes
Airport map: 
Aerial View: 

SKYbrary Partners:

Safety knowledge contributed by: